Time;durP1;ratioP1;P1;durP2;ratioP2;P2;SDS_P1;SDS_P2;PMS_P1;PMS_P2;Temp;Humidity;BMP_temperature;BMP_pressure;BME280_temperature;BME280_humidity;BME280_pressure;Samples;Min_cycle;Max_cycle;Signal;HPM_P1;HPM_P2
2021/05/02 00:00:45;;;;;;;10.93;8.77;;;;;;;;;;5032901;28;20040;-56
2021/05/02 00:03:12;;;;;;;13.30;9.77;;;;;;;;;;5032823;28;20039;-56
2021/05/02 00:05:39;;;;;;;11.10;8.70;;;;;;;;;;5032789;28;20395;-56
2021/05/02 00:08:06;;;;;;;11.03;8.63;;;;;;;;;;5032848;28;20026;-56
2021/05/02 00:10:34;;;;;;;12.93;9.33;;;;;;;;;;5032702;28;20041;-56
2021/05/02 00:13:02;;;;;;;14.83;8.43;;;;;;;;;;5032730;28;20040;-56
2021/05/02 00:15:29;;;;;;;12.80;9.43;;;;;;;;;;5032787;28;20030;-57
2021/05/02 00:17:56;;;;;;;17.37;8.20;;;;;;;;;;5032722;28;20052;-56
2021/05/02 00:20:25;;;;;;;13.73;9.20;;;;;;;;;;5033440;28;20444;-57
2021/05/02 00:22:54;;;;;;;12.43;7.73;;;;;;;;;;5032787;28;20498;-56
2021/05/02 00:25:22;;;;;;;12.37;8.33;;;;;;;;;;5032675;28;20110;-57
2021/05/02 00:27:49;;;;;;;11.43;8.57;;;;;;;;;;5032591;28;20045;-57
2021/05/02 00:30:18;;;;;;;14.47;8.47;;;;;;;;;;5032347;28;20029;-57
2021/05/02 00:32:47;;;;;;;12.40;8.57;;;;;;;;;;5032616;28;20322;-57
2021/05/02 00:35:14;;;;;;;15.20;8.37;;;;;;;;;;5032664;28;20034;-57
2021/05/02 00:37:42;;;;;;;11.83;9.10;;;;;;;;;;5032518;28;20029;-57
2021/05/02 00:40:11;;;;;;;13.47;9.10;;;;;;;;;;5032489;28;20034;-57
2021/05/02 00:42:41;;;;;;;11.50;8.63;;;;;;;;;;5032472;28;20117;-56
2021/05/02 00:45:08;;;;;;;11.03;8.00;;;;;;;;;;5032441;28;20108;-57
2021/05/02 00:47:39;;;;;;;10.47;7.80;;;;;;;;;;5032533;28;20028;-57
2021/05/02 00:50:09;;;;;;;13.27;8.17;;;;;;;;;;5032262;28;20037;-56
2021/05/02 00:52:50;;;;;;;11.37;7.40;;;;;;;;;;5032457;28;20149;-57
2021/05/02 00:55:37;;;;;;;11.40;7.63;;;;;;;;;;5032407;28;20026;-56
2021/05/02 00:58:05;;;;;;;12.43;9.27;;;;;;;;;;5022938;28;20038;-57
2021/05/02 01:00:36;;;;;;;13.97;10.37;;;;;;;;;;5036258;28;20021;-57
2021/05/02 01:03:06;;;;;;;14.77;9.87;;;;;;;;;;5036046;28;20507;-56
2021/05/02 01:05:34;;;;;;;17.43;10.50;;;;;;;;;;5036007;28;20029;-57
2021/05/02 01:08:02;;;;;;;13.53;9.30;;;;;;;;;;5036096;28;20021;-57
2021/05/02 01:10:29;;;;;;;12.80;7.53;;;;;;;;;;5035745;28;20107;-57
2021/05/02 01:12:58;;;;;;;9.67;7.07;;;;;;;;;;5036164;28;20021;-58
2021/05/02 01:15:27;;;;;;;13.23;7.50;;;;;;;;;;5035837;28;20048;-57
2021/05/02 01:18:12;;;;;;;13.13;7.87;;;;;;;;;;5035822;28;20024;-57
2021/05/02 01:20:41;;;;;;;10.10;7.10;;;;;;;;;;5036499;28;20059;-58
2021/05/02 01:23:28;;;;;;;12.53;7.57;;;;;;;;;;5035588;28;20040;-58
2021/05/02 01:25:56;;;;;;;10.90;6.87;;;;;;;;;;5035389;28;20036;-57
2021/05/02 01:28:24;;;;;;;10.43;7.10;;;;;;;;;;5035600;28;20551;-57
2021/05/02 01:30:51;;;;;;;11.67;7.43;;;;;;;;;;5035488;28;20157;-57
2021/05/02 01:33:18;;;;;;;11.07;6.77;;;;;;;;;;5035420;28;20021;-57
2021/05/02 01:35:45;;;;;;;14.83;7.80;;;;;;;;;;5035494;28;20030;-57
2021/05/02 01:38:12;;;;;;;12.80;8.10;;;;;;;;;;5035565;28;20021;-57
2021/05/02 01:40:39;;;;;;;17.53;8.50;;;;;;;;;;5035207;28;20384;-57
2021/05/02 01:43:06;;;;;;;14.70;8.90;;;;;;;;;;5035361;28;20063;-57
2021/05/02 01:45:33;;;;;;;14.93;8.30;;;;;;;;;;5017616;28;20080;-57
2021/05/02 01:48:02;;;;;;;14.50;8.20;;;;;;;;;;5035260;28;20021;-57
2021/05/02 01:50:29;;;;;;;10.77;7.77;;;;;;;;;;5035069;28;20116;-56
2021/05/02 01:52:56;;;;;;;12.97;8.37;;;;;;;;;;5035168;28;20033;-56
2021/05/02 01:55:23;;;;;;;11.87;7.63;;;;;;;;;;5035061;28;20049;-57
2021/05/02 01:57:51;;;;;;;14.37;9.47;;;;;;;;;;5034984;28;20472;-56
2021/05/02 02:00:26;;;;;;;15.90;10.77;;;;;;;;;;5034905;28;20489;-56
2021/05/02 02:02:54;;;;;;;13.87;10.13;;;;;;;;;;5034905;28;20079;-56
2021/05/02 02:05:22;;;;;;;23.03;16.43;;;;;;;;;;5034995;28;20025;-56
2021/05/02 02:07:50;;;;;;;23.97;15.47;;;;;;;;;;5034723;28;20021;-56
2021/05/02 02:10:17;;;;;;;19.33;12.97;;;;;;;;;;5034740;28;20083;-56
2021/05/02 02:12:46;;;;;;;12.27;7.80;;;;;;;;;;5034777;28;20486;-56
2021/05/02 02:15:13;;;;;;;15.10;7.83;;;;;;;;;;5034678;28;20029;-56
2021/05/02 02:17:40;;;;;;;9.13;6.90;;;;;;;;;;5034696;28;20092;-56
2021/05/02 02:20:07;;;;;;;11.93;7.20;;;;;;;;;;5035191;28;20399;-56
2021/05/02 02:22:40;;;;;;;12.60;6.80;;;;;;;;;;5034524;28;20029;-56
2021/05/02 02:25:08;;;;;;;12.87;7.50;;;;;;;;;;5034579;28;20026;-56
2021/05/02 02:27:35;;;;;;;10.20;7.07;;;;;;;;;;5034464;28;20444;-56
2021/05/02 02:30:08;;;;;;;10.60;6.83;;;;;;;;;;5016993;28;20072;-56
2021/05/02 02:32:35;;;;;;;11.23;6.67;;;;;;;;;;5034367;28;20029;-56
2021/05/02 02:35:04;;;;;;;9.17;6.20;;;;;;;;;;5034211;28;20442;-55
2021/05/02 02:37:31;;;;;;;12.97;6.47;;;;;;;;;;5034308;28;20022;-55
2021/05/02 02:39:59;;;;;;;8.47;6.00;;;;;;;;;;5034054;28;20025;-55
2021/05/02 02:42:26;;;;;;;10.63;6.33;;;;;;;;;;5034139;28;20052;-55
2021/05/02 02:44:57;;;;;;;13.13;7.00;;;;;;;;;;5034088;28;20033;-56
2021/05/02 02:47:33;;;;;;;12.33;7.00;;;;;;;;;;5033917;28;20157;-55
2021/05/02 02:50:01;;;;;;;8.63;6.30;;;;;;;;;;5033921;28;20041;-55
2021/05/02 02:52:29;;;;;;;12.03;6.73;;;;;;;;;;5033961;28;20026;-56
2021/05/02 02:55:06;;;;;;;11.17;7.50;;;;;;;;;;5033962;28;20037;-55
2021/05/02 02:57:38;;;;;;;13.37;7.47;;;;;;;;;;5033825;28;20025;-55
2021/05/02 03:00:06;;;;;;;15.70;8.27;;;;;;;;;;5033666;28;20383;-55
2021/05/02 03:02:35;;;;;;;15.53;8.43;;;;;;;;;;5033791;28;20021;-55
2021/05/02 03:05:02;;;;;;;14.53;10.13;;;;;;;;;;5033860;28;20083;-55
2021/05/02 03:07:31;;;;;;;16.03;9.57;;;;;;;;;;5016015;28;20018;-55
2021/05/02 03:09:59;;;;;;;16.70;10.23;;;;;;;;;;5033379;28;20484;-56
2021/05/02 03:12:26;;;;;;;15.73;10.47;;;;;;;;;;5033453;28;20029;-56
2021/05/02 03:14:53;;;;;;;12.73;9.10;;;;;;;;;;5033652;28;20030;-56
2021/05/02 03:17:28;;;;;;;13.80;9.70;;;;;;;;;;5033598;28;20076;-55
2021/05/02 03:19:59;;;;;;;14.67;10.03;;;;;;;;;;5033737;28;20021;-56
2021/05/02 03:22:33;;;;;;;15.60;10.27;;;;;;;;;;5033371;28;20030;-55
2021/05/02 03:25:01;;;;;;;12.57;8.80;;;;;;;;;;5033457;28;20030;-55
2021/05/02 03:27:35;;;;;;;13.27;8.87;;;;;;;;;;5033407;28;20025;-55
2021/05/02 03:30:08;;;;;;;13.23;8.20;;;;;;;;;;5033057;28;20065;-55
2021/05/02 03:32:36;;;;;;;15.63;10.73;;;;;;;;;;5033332;28;20022;-55
2021/05/02 03:35:07;;;;;;;15.43;9.60;;;;;;;;;;5033551;28;20048;-55
2021/05/02 03:37:35;;;;;;;15.10;9.30;;;;;;;;;;5033228;28;20068;-56
2021/05/02 03:40:02;;;;;;;14.27;9.37;;;;;;;;;;5033100;28;20025;-55
2021/05/02 03:42:29;;;;;;;14.17;8.27;;;;;;;;;;5033202;28;20021;-56
2021/05/02 03:44:56;;;;;;;15.87;8.33;;;;;;;;;;5033105;28;20029;-56
2021/05/02 03:47:22;;;;;;;11.23;8.40;;;;;;;;;;5033119;28;20029;-56
2021/05/02 03:49:49;;;;;;;14.10;8.37;;;;;;;;;;5032992;28;20112;-56
2021/05/02 03:52:16;;;;;;;13.97;9.40;;;;;;;;;;5033089;28;20017;-55
2021/05/02 03:54:43;;;;;;;16.47;9.53;;;;;;;;;;5033076;28;20549;-56
2021/05/02 03:57:10;;;;;;;18.67;9.67;;;;;;;;;;5033052;28;20080;-56
2021/05/02 03:59:37;;;;;;;17.17;10.03;;;;;;;;;;5032873;28;20045;-56
2021/05/02 04:02:05;;;;;;;13.40;8.90;;;;;;;;;;5015220;28;20083;-56
2021/05/02 04:04:33;;;;;;;12.70;8.00;;;;;;;;;;5032831;28;20031;-56
2021/05/02 04:07:00;;;;;;;11.47;7.23;;;;;;;;;;5032865;28;20022;-56
2021/05/02 04:09:27;;;;;;;14.37;8.70;;;;;;;;;;5032547;28;20079;-55
2021/05/02 04:11:54;;;;;;;17.43;8.57;;;;;;;;;;5032764;28;20033;-55
2021/05/02 04:14:21;;;;;;;13.33;8.70;;;;;;;;;;5032329;28;20030;-56
2021/05/02 04:16:58;;;;;;;16.13;8.17;;;;;;;;;;5032544;28;20100;-56
2021/05/02 04:19:26;;;;;;;12.77;7.10;;;;;;;;;;5032608;28;20026;-56
2021/05/02 04:21:53;;;;;;;10.20;7.43;;;;;;;;;;5033597;28;20053;-56
2021/05/02 04:24:21;;;;;;;11.07;7.77;;;;;;;;;;5032576;28;20084;-56
2021/05/02 04:26:48;;;;;;;10.73;6.97;;;;;;;;;;5032584;28;20033;-55
2021/05/02 04:29:15;;;;;;;10.47;7.27;;;;;;;;;;5032667;28;20128;-56
2021/05/02 04:31:42;;;;;;;9.30;6.10;;;;;;;;;;5034817;28;20026;-56
2021/05/02 04:34:09;;;;;;;8.83;6.33;;;;;;;;;;5036514;28;20049;-56
2021/05/02 04:36:35;;;;;;;11.70;8.20;;;;;;;;;;5036611;28;20037;-56
2021/05/02 04:39:03;;;;;;;13.70;7.30;;;;;;;;;;5036504;28;20398;-55
2021/05/02 04:41:30;;;;;;;9.53;6.50;;;;;;;;;;5036357;28;20029;-56
2021/05/02 04:43:57;;;;;;;9.20;6.33;;;;;;;;;;5036308;28;20090;-56
2021/05/02 04:46:27;;;;;;;10.20;6.23;;;;;;;;;;5036190;28;20365;-56
2021/05/02 04:48:54;;;;;;;9.57;6.13;;;;;;;;;;5036244;28;20026;-56
2021/05/02 04:51:21;;;;;;;11.17;6.07;;;;;;;;;;5036014;28;20042;-56
2021/05/02 04:53:49;;;;;;;10.20;6.73;;;;;;;;;;5036126;28;20029;-55
2021/05/02 04:56:16;;;;;;;8.70;5.93;;;;;;;;;;5036185;28;20029;-56
2021/05/02 04:58:43;;;;;;;12.60;5.83;;;;;;;;;;5036147;28;20053;-57
2021/05/02 05:01:10;;;;;;;11.70;7.03;;;;;;;;;;5035889;28;20057;-56
2021/05/02 05:03:37;;;;;;;12.03;6.13;;;;;;;;;;5035972;28;20110;-56
2021/05/02 05:06:04;;;;;;;12.70;6.93;;;;;;;;;;5035775;28;20025;-56
2021/05/02 05:08:31;;;;;;;8.67;5.80;;;;;;;;;;5035699;28;20116;-56
2021/05/02 05:10:58;;;;;;;10.53;5.67;;;;;;;;;;5035853;28;20073;-56
2021/05/02 05:13:27;;;;;;;10.00;5.60;;;;;;;;;;5035961;28;20096;-56
2021/05/02 05:15:58;;;;;;;10.20;6.03;;;;;;;;;;5035783;28;20423;-56
2021/05/02 05:18:25;;;;;;;10.60;5.23;;;;;;;;;;5035787;28;20057;-56
2021/05/02 05:20:52;;;;;;;11.83;5.87;;;;;;;;;;5036409;28;20411;-56
2021/05/02 05:23:19;;;;;;;10.83;6.07;;;;;;;;;;5035594;28;20464;-56
2021/05/02 05:25:46;;;;;;;12.73;6.23;;;;;;;;;;5035720;28;20039;-56
2021/05/02 05:28:13;;;;;;;14.33;6.47;;;;;;;;;;5035526;28;20028;-55
2021/05/02 05:30:40;;;;;;;10.57;5.80;;;;;;;;;;5035516;28;20399;-56
2021/05/02 05:33:08;;;;;;;9.23;5.73;;;;;;;;;;5035562;28;20029;-56
2021/05/02 05:35:36;;;;;;;10.07;5.90;;;;;;;;;;5035511;28;20035;-56
2021/05/02 05:38:03;;;;;;;10.43;6.40;;;;;;;;;;5035456;28;20510;-56
2021/05/02 05:40:30;;;;;;;13.47;6.63;;;;;;;;;;5035262;28;20017;-56
2021/05/02 05:42:57;;;;;;;10.23;6.87;;;;;;;;;;5034778;28;20026;-56
2021/05/02 05:45:24;;;;;;;11.43;6.97;;;;;;;;;;5035299;28;20038;-56
2021/05/02 05:47:53;;;;;;;11.10;7.23;;;;;;;;;;5035294;28;20026;-56
2021/05/02 05:50:20;;;;;;;9.23;6.00;;;;;;;;;;5035123;28;20048;-56
2021/05/02 05:52:47;;;;;;;12.90;6.87;;;;;;;;;;5035165;28;20099;-56
2021/05/02 05:55:15;;;;;;;11.30;6.97;;;;;;;;;;5035054;28;20045;-56
2021/05/02 05:57:42;;;;;;;10.73;6.83;;;;;;;;;;5035356;28;20071;-56
2021/05/02 06:00:10;;;;;;;8.87;6.23;;;;;;;;;;5034986;28;20499;-56
2021/05/02 06:02:37;;;;;;;8.93;6.27;;;;;;;;;;5035035;28;20423;-56
2021/05/02 06:05:04;;;;;;;10.27;7.40;;;;;;;;;;5035043;28;20061;-56
2021/05/02 06:07:31;;;;;;;11.43;7.40;;;;;;;;;;5034861;28;20025;-56
2021/05/02 06:09:58;;;;;;;10.00;7.20;;;;;;;;;;5034575;28;20088;-56
2021/05/02 06:12:25;;;;;;;10.97;6.17;;;;;;;;;;5034843;28;20400;-56
2021/05/02 06:14:51;;;;;;;11.77;6.50;;;;;;;;;;5034772;28;20060;-56
2021/05/02 06:17:18;;;;;;;9.57;6.13;;;;;;;;;;5034620;28;20384;-56
2021/05/02 06:19:45;;;;;;;9.87;6.10;;;;;;;;;;5034572;28;20037;-55
2021/05/02 06:22:12;;;;;;;11.90;6.93;;;;;;;;;;5035497;28;20060;-56
2021/05/02 06:24:39;;;;;;;10.73;7.30;;;;;;;;;;5034487;28;20499;-55
2021/05/02 06:27:06;;;;;;;10.13;7.20;;;;;;;;;;5034525;28;20026;-55
2021/05/02 06:29:33;;;;;;;13.50;6.70;;;;;;;;;;5034438;28;20037;-56
2021/05/02 06:31:59;;;;;;;10.63;6.97;;;;;;;;;;5034410;28;20025;-56
2021/05/02 06:34:26;;;;;;;15.13;8.67;;;;;;;;;;5034627;28;20082;-56
2021/05/02 06:36:58;;;;;;;8.20;6.00;;;;;;;;;;5034228;28;20028;-56
2021/05/02 06:39:25;;;;;;;9.43;6.40;;;;;;;;;;5034127;28;20025;-56
2021/05/02 06:41:52;;;;;;;10.90;7.17;;;;;;;;;;5034237;28;20034;-56
2021/05/02 06:44:19;;;;;;;18.40;8.70;;;;;;;;;;5034076;28;20029;-56
2021/05/02 06:46:46;;;;;;;11.13;6.67;;;;;;;;;;5034168;28;20026;-56
2021/05/02 06:49:13;;;;;;;10.30;6.13;;;;;;;;;;5034015;28;20036;-56
2021/05/02 06:51:40;;;;;;;10.70;6.07;;;;;;;;;;5033937;28;20036;-56
2021/05/02 06:54:08;;;;;;;11.07;7.10;;;;;;;;;;5033243;28;20021;-56
2021/05/02 06:56:36;;;;;;;9.80;6.30;;;;;;;;;;5033898;28;20036;-56
2021/05/02 06:59:03;;;;;;;10.30;6.50;;;;;;;;;;5033935;28;20083;-56
2021/05/02 07:01:31;;;;;;;13.87;7.53;;;;;;;;;;5033767;28;20079;-56
2021/05/02 07:04:11;;;;;;;13.10;7.00;;;;;;;;;;5033824;28;20018;-56
2021/05/02 07:06:38;;;;;;;13.10;7.93;;;;;;;;;;5033526;28;20052;-56
2021/05/02 07:09:05;;;;;;;12.93;8.20;;;;;;;;;;5033639;28;20026;-56
2021/05/02 07:11:32;;;;;;;12.27;7.50;;;;;;;;;;5033591;28;20119;-56
2021/05/02 07:13:59;;;;;;;10.00;7.10;;;;;;;;;;5033568;28;20017;-55
2021/05/02 07:16:26;;;;;;;12.50;7.00;;;;;;;;;;5033544;28;20025;-56
2021/05/02 07:18:53;;;;;;;9.97;6.93;;;;;;;;;;5033358;28;20025;-56
2021/05/02 07:21:20;;;;;;;11.90;7.20;;;;;;;;;;5034263;28;20073;-55
2021/05/02 07:23:51;;;;;;;10.53;7.00;;;;;;;;;;5033529;28;20476;-55
2021/05/02 07:26:19;;;;;;;11.37;7.63;;;;;;;;;;5033529;28;20049;-55
2021/05/02 07:28:46;;;;;;;12.77;7.90;;;;;;;;;;5033288;28;20495;-55
2021/05/02 07:31:12;;;;;;;11.37;7.60;;;;;;;;;;5033212;28;20061;-56
2021/05/02 07:33:40;;;;;;;12.60;7.37;;;;;;;;;;5033277;28;20032;-56
2021/05/02 07:36:07;;;;;;;11.07;8.07;;;;;;;;;;5033533;28;20546;-56
2021/05/02 07:38:34;;;;;;;14.37;8.60;;;;;;;;;;5033025;28;20032;-56
2021/05/02 07:41:01;;;;;;;11.77;8.17;;;;;;;;;;5033035;28;20022;-56
2021/05/02 07:43:28;;;;;;;13.43;8.73;;;;;;;;;;5033032;28;20495;-56
2021/05/02 07:45:55;;;;;;;14.90;8.63;;;;;;;;;;5033333;28;20013;-56
2021/05/02 07:48:22;;;;;;;13.17;7.70;;;;;;;;;;5033019;28;20098;-55
2021/05/02 07:50:49;;;;;;;13.37;6.77;;;;;;;;;;5032851;28;20037;-55
2021/05/02 07:53:17;;;;;;;10.60;7.30;;;;;;;;;;5033025;28;20103;-55
2021/05/02 07:55:44;;;;;;;10.83;6.90;;;;;;;;;;5033013;28;20025;-56
2021/05/02 07:58:11;;;;;;;13.23;7.00;;;;;;;;;;5032863;28;20022;-55
2021/05/02 08:00:38;;;;;;;18.13;9.77;;;;;;;;;;5032821;28;20432;-55
2021/05/02 08:03:05;;;;;;;13.83;8.03;;;;;;;;;;5015109;28;20076;-55
2021/05/02 08:05:32;;;;;;;9.77;7.23;;;;;;;;;;5032624;28;20021;-55
2021/05/02 08:07:59;;;;;;;12.03;7.33;;;;;;;;;;5032849;28;20076;-55
2021/05/02 08:10:26;;;;;;;10.67;7.83;;;;;;;;;;5032539;28;20042;-55
2021/05/02 08:12:53;;;;;;;11.00;7.07;;;;;;;;;;5032719;28;20022;-55
2021/05/02 08:15:20;;;;;;;11.83;6.73;;;;;;;;;;5032691;28;20030;-56
2021/05/02 08:17:47;;;;;;;10.80;7.10;;;;;;;;;;5032580;28;20480;-55
2021/05/02 08:20:14;;;;;;;13.70;6.90;;;;;;;;;;5015045;28;20037;-55
2021/05/02 08:22:41;;;;;;;12.47;7.17;;;;;;;;;;5033633;28;20058;-55
2021/05/02 08:25:08;;;;;;;11.57;7.73;;;;;;;;;;5032676;28;20021;-55
2021/05/02 08:27:35;;;;;;;13.60;7.53;;;;;;;;;;5032717;28;20033;-55
2021/05/02 08:30:03;;;;;;;9.80;6.07;;;;;;;;;;5032482;28;20141;-55
2021/05/02 08:32:30;;;;;;;13.60;7.33;;;;;;;;;;5032635;28;20017;-55
2021/05/02 08:34:56;;;;;;;9.57;6.40;;;;;;;;;;5032559;28;20029;-55
2021/05/02 08:37:23;;;;;;;7.90;6.00;;;;;;;;;;5032910;28;20518;-55
2021/05/02 08:39:50;;;;;;;8.63;6.50;;;;;;;;;;5032543;28;20033;-55
2021/05/02 08:42:17;;;;;;;9.40;6.23;;;;;;;;;;5032422;28;20029;-55
2021/05/02 08:44:44;;;;;;;10.67;6.00;;;;;;;;;;5032407;28;20160;-55
2021/05/02 08:47:13;;;;;;;9.20;5.97;;;;;;;;;;5032394;28;20021;-55
2021/05/02 08:49:41;;;;;;;11.57;7.27;;;;;;;;;;5032362;28;20029;-55
2021/05/02 08:52:08;;;;;;;9.40;7.13;;;;;;;;;;5014687;28;20484;-55
2021/05/02 08:54:35;;;;;;;10.63;7.03;;;;;;;;;;5032433;28;20021;-55
2021/05/02 08:57:02;;;;;;;16.47;9.60;;;;;;;;;;5032301;28;20022;-55
2021/05/02 08:59:29;;;;;;;16.27;8.43;;;;;;;;;;5032289;28;20029;-55
2021/05/02 09:01:56;;;;;;;13.70;9.07;;;;;;;;;;5032356;28;20091;-55
2021/05/02 09:04:23;;;;;;;10.27;7.30;;;;;;;;;;5032561;28;20100;-55
2021/05/02 09:06:50;;;;;;;10.70;7.30;;;;;;;;;;5032226;28;20022;-55
2021/05/02 09:09:17;;;;;;;9.37;6.20;;;;;;;;;;5032154;28;20034;-55
2021/05/02 09:11:49;;;;;;;11.53;7.33;;;;;;;;;;5032230;28;20108;-55
2021/05/02 09:14:15;;;;;;;8.23;6.07;;;;;;;;;;5032263;28;20028;-55
2021/05/02 09:16:47;;;;;;;10.80;6.33;;;;;;;;;;5032547;28;20037;-55
2021/05/02 09:19:14;;;;;;;10.93;6.50;;;;;;;;;;5035878;28;20037;-55
2021/05/02 09:21:41;;;;;;;12.90;6.47;;;;;;;;;;5036704;28;20052;-55
2021/05/02 09:24:21;;;;;;;8.90;6.37;;;;;;;;;;5035638;28;20376;-55
2021/05/02 09:27:01;;;;;;;10.13;6.17;;;;;;;;;;5035751;28;20033;-55
2021/05/02 09:29:30;;;;;;;8.67;6.67;;;;;;;;;;5035499;28;20018;-55
2021/05/02 09:31:57;;;;;;;11.43;7.37;;;;;;;;;;5035560;28;20033;-55
2021/05/02 09:34:24;;;;;;;11.90;6.43;;;;;;;;;;5035467;28;20495;-55
2021/05/02 09:36:52;;;;;;;9.70;6.30;;;;;;;;;;5035535;28;20040;-55
2021/05/02 09:39:39;;;;;;;11.30;6.70;;;;;;;;;;5035345;28;20101;-55
2021/05/02 09:42:07;;;;;;;9.50;5.60;;;;;;;;;;5035201;28;20021;-55
2021/05/02 09:44:54;;;;;;;8.53;5.23;;;;;;;;;;5035357;28;20030;-55
2021/05/02 09:47:23;;;;;;;10.07;7.17;;;;;;;;;;5035256;28;20333;-55
2021/05/02 09:50:08;;;;;;;10.87;6.90;;;;;;;;;;5035086;28;20073;-55
2021/05/02 09:53:01;;;;;;;10.18;6.68;;;;;;;;;;5035230;28;20022;-55
2021/05/02 09:55:30;;;;;;;9.33;6.13;;;;;;;;;;5035168;28;20377;-55
2021/05/02 09:58:02;;;;;;;9.33;6.80;;;;;;;;;;5035087;28;20116;-55
2021/05/02 10:00:31;;;;;;;8.53;6.23;;;;;;;;;;5035011;28;20036;-55
2021/05/02 10:02:58;;;;;;;7.97;5.90;;;;;;;;;;5035055;28;20034;-55
2021/05/02 10:05:25;;;;;;;12.57;8.43;;;;;;;;;;5035085;28;20025;-55
2021/05/02 10:07:52;;;;;;;9.67;8.17;;;;;;;;;;5034780;28;20034;-55
2021/05/02 10:10:19;;;;;;;10.60;8.13;;;;;;;;;;5034629;28;20443;-55
2021/05/02 10:12:50;;;;;;;9.33;6.70;;;;;;;;;;5034677;28;20035;-55
2021/05/02 10:15:16;;;;;;;10.87;6.77;;;;;;;;;;5034699;28;20082;-55
2021/05/02 10:17:45;;;;;;;10.13;7.10;;;;;;;;;;5034579;28;20384;-55
2021/05/02 10:20:13;;;;;;;10.90;7.33;;;;;;;;;;5034485;28;20227;-55
2021/05/02 10:22:40;;;;;;;10.37;7.63;;;;;;;;;;5035472;28;20115;-55
2021/05/02 10:25:08;;;;;;;12.00;8.93;;;;;;;;;;5034493;28;20044;-55
2021/05/02 10:27:40;;;;;;;14.33;9.77;;;;;;;;;;5034471;28;20033;-55
2021/05/02 10:30:08;;;;;;;18.00;9.93;;;;;;;;;;5034443;28;20033;-55
2021/05/02 10:32:35;;;;;;;13.97;9.93;;;;;;;;;;5034475;28;20014;-55
2021/05/02 10:35:09;;;;;;;15.27;10.27;;;;;;;;;;5034367;28;20021;-55
2021/05/02 10:37:38;;;;;;;13.90;9.32;;;;;;;;;;5034552;28;20101;-55
2021/05/02 10:40:08;;;;;;;14.83;9.97;;;;;;;;;;5034214;28;20035;-55
2021/05/02 10:42:50;;;;;;;12.83;8.67;;;;;;;;;;5034243;28;20365;-55
2021/05/02 10:45:29;;;;;;;12.60;8.73;;;;;;;;;;5034153;28;20022;-55
2021/05/02 10:47:56;;;;;;;11.93;8.93;;;;;;;;;;5034184;28;20029;-55
2021/05/02 10:50:30;;;;;;;13.77;9.47;;;;;;;;;;5033897;28;20092;-55
2021/05/02 10:53:04;;;;;;;14.80;9.13;;;;;;;;;;5034112;28;20053;-55
2021/05/02 10:55:43;;;;;;;13.27;8.45;;;;;;;;;;5033935;28;20029;-55
2021/05/02 10:58:18;;;;;;;14.10;8.80;;;;;;;;;;5034016;28;20017;-55
2021/05/02 11:00:49;;;;;;;11.75;8.55;;;;;;;;;;5033718;28;20021;-55
2021/05/02 11:03:34;;;;;;;15.67;9.23;;;;;;;;;;5033913;28;20030;-55
2021/05/02 11:06:00;;;;;;;16.65;9.43;;;;;;;;;;5033876;28;20038;-55
2021/05/02 11:08:45;;;;;;;16.87;9.37;;;;;;;;;;5033794;28;20108;-55
2021/05/02 11:11:31;;;;;;;10.15;7.55;;;;;;;;;;5033707;28;20037;-55
2021/05/02 11:14:10;;;;;;;10.38;7.30;;;;;;;;;;5033742;28;20056;-55
2021/05/02 11:16:40;;;;;;;13.13;8.27;;;;;;;;;;5033506;28;20030;-55
2021/05/02 11:19:07;;;;;;;10.90;7.50;;;;;;;;;;5033442;28;20479;-55
2021/05/02 11:21:52;;;;;;;13.33;8.50;;;;;;;;;;5034302;28;20408;-55
2021/05/02 11:24:20;;;;;;;10.65;8.07;;;;;;;;;;5033846;28;20435;-55
2021/05/02 11:29:48;;;;;;;11.07;7.27;;;;;;;;;;5033046;28;20100;-55
2021/05/02 11:32:34;;;;;;;11.77;8.53;;;;;;;;;;5033186;28;20488;-55
2021/05/02 11:35:07;;;;;;;11.93;7.83;;;;;;;;;;5033495;28;20080;-55
2021/05/02 11:37:47;;;;;;;9.97;6.40;;;;;;;;;;5033334;28;20379;-55
2021/05/02 11:40:26;;;;;;;11.50;7.37;;;;;;;;;;5032569;28;20033;-55
2021/05/02 11:42:54;;;;;;;10.83;8.00;;;;;;;;;;5033151;28;20032;-55
2021/05/02 11:45:22;;;;;;;9.70;7.23;;;;;;;;;;5033043;28;20035;-55
2021/05/02 11:47:49;;;;;;;12.87;7.63;;;;;;;;;;5033148;28;20105;-55
2021/05/02 11:50:17;;;;;;;11.53;6.70;;;;;;;;;;5032967;28;20075;-55
2021/05/02 11:52:45;;;;;;;9.73;6.97;;;;;;;;;;5032967;28;20096;-55
2021/05/02 11:55:26;;;;;;;8.10;5.80;;;;;;;;;;5032911;28;20152;-55
2021/05/02 11:57:53;;;;;;;11.70;8.27;;;;;;;;;;5033043;28;20025;-55
2021/05/02 12:00:40;;;;;;;12.17;7.63;;;;;;;;;;5032925;28;20077;-55
2021/05/02 12:03:07;;;;;;;10.37;7.17;;;;;;;;;;5019668;28;20480;-55
2021/05/02 12:05:34;;;;;;;11.80;7.03;;;;;;;;;;5032814;28;20026;-55
2021/05/02 12:08:10;;;;;;;11.27;7.30;;;;;;;;;;5032866;28;20104;-55
2021/05/02 12:10:37;;;;;;;10.03;7.40;;;;;;;;;;5032601;28;20084;-55
2021/05/02 12:13:05;;;;;;;9.43;6.60;;;;;;;;;;5032645;28;20037;-55
2021/05/02 12:15:33;;;;;;;11.60;7.17;;;;;;;;;;5032734;28;20029;-55
2021/05/02 12:18:00;;;;;;;13.57;7.10;;;;;;;;;;5032799;28;20029;-55
2021/05/02 12:20:28;;;;;;;11.50;7.43;;;;;;;;;;5032571;28;20029;-55
2021/05/02 12:22:55;;;;;;;11.77;7.30;;;;;;;;;;5033596;28;20053;-55
2021/05/02 12:25:22;;;;;;;12.60;7.53;;;;;;;;;;5032634;28;20471;-55
2021/05/02 12:27:59;;;;;;;15.37;8.43;;;;;;;;;;5032578;28;20115;-55
2021/05/02 12:30:29;;;;;;;21.90;11.30;;;;;;;;;;5032474;28;20055;-55
2021/05/02 12:32:55;;;;;;;16.53;10.70;;;;;;;;;;5032588;28;20025;-55
2021/05/02 12:35:23;;;;;;;13.60;9.77;;;;;;;;;;5032616;28;20105;-55
2021/05/02 12:37:50;;;;;;;12.97;8.43;;;;;;;;;;5032608;28;20030;-55
2021/05/02 12:40:17;;;;;;;14.97;9.00;;;;;;;;;;5032521;28;20026;-55
2021/05/02 12:42:44;;;;;;;13.60;10.03;;;;;;;;;;5032508;28;20377;-55
2021/05/02 12:45:12;;;;;;;11.60;8.07;;;;;;;;;;5032545;28;20052;-55
2021/05/02 12:47:42;;;;;;;15.10;8.57;;;;;;;;;;5032432;28;20618;-55
2021/05/02 12:50:10;;;;;;;14.23;9.47;;;;;;;;;;5032211;28;20400;-55
2021/05/02 12:52:38;;;;;;;16.73;10.90;;;;;;;;;;5034259;28;20028;-55
2021/05/02 12:55:17;;;;;;;15.17;9.67;;;;;;;;;;5036340;28;20099;-55
2021/05/02 12:57:48;;;;;;;14.53;10.40;;;;;;;;;;5036607;28;20030;-55
2021/05/02 13:00:17;;;;;;;12.03;8.27;;;;;;;;;;5036204;28;20096;-55
2021/05/02 13:02:45;;;;;;;11.87;8.23;;;;;;;;;;5036097;28;20162;-55
2021/05/02 13:05:13;;;;;;;13.13;8.47;;;;;;;;;;5036062;28;20104;-55
2021/05/02 13:07:42;;;;;;;12.37;8.30;;;;;;;;;;5036109;28;20025;-55
2021/05/02 13:10:11;;;;;;;14.10;9.13;;;;;;;;;;5035875;28;20431;-55
2021/05/02 13:12:51;;;;;;;14.23;9.37;;;;;;;;;;5035879;28;20022;-55
2021/05/02 13:15:19;;;;;;;11.77;8.97;;;;;;;;;;5035929;28;20026;-55
2021/05/02 13:18:04;;;;;;;17.37;10.10;;;;;;;;;;5035816;28;20029;-55
2021/05/02 13:20:49;;;;;;;14.38;9.82;;;;;;;;;;5035884;28;20022;-55
2021/05/02 13:23:30;;;;;;;13.05;10.45;;;;;;;;;;5036646;28;20053;-55
2021/05/02 13:26:15;;;;;;;15.00;10.57;;;;;;;;;;5035706;28;20045;-55
2021/05/02 13:29:21;;;;;;;19.35;11.38;;;;;;;;;;5035651;28;20194;-55
2021/05/02 13:31:49;;;;;;;15.90;11.40;;;;;;;;;;4955261;29;20039;-55
2021/05/02 13:34:17;;;;;;;15.17;11.60;;;;;;;;;;4955148;29;20031;-55
2021/05/02 13:36:47;;;;;;;19.73;11.73;;;;;;;;;;4995816;28;20049;-55
2021/05/02 13:39:14;;;;;;;16.93;11.20;;;;;;;;;;5035677;28;20025;-55
2021/05/02 13:41:41;;;;;;;12.67;10.17;;;;;;;;;;5035349;28;20037;-55
2021/05/02 13:44:13;;;;;;;14.27;10.13;;;;;;;;;;5035357;28;20029;-55
2021/05/02 13:46:40;;;;;;;13.20;9.73;;;;;;;;;;5035296;28;20396;-55
2021/05/02 13:49:07;;;;;;;16.30;10.20;;;;;;;;;;5035168;28;20361;-55
2021/05/02 13:51:35;;;;;;;12.13;9.73;;;;;;;;;;5035256;28;20032;-55
2021/05/02 13:54:01;;;;;;;14.97;9.50;;;;;;;;;;5035241;28;20021;-55
2021/05/02 13:56:28;;;;;;;14.73;9.83;;;;;;;;;;5035097;28;20388;-55
2021/05/02 13:58:56;;;;;;;13.90;10.97;;;;;;;;;;5034972;28;20068;-55
2021/05/02 14:01:23;;;;;;;15.07;11.13;;;;;;;;;;5035079;28;20036;-55
2021/05/02 14:03:54;;;;;;;14.77;10.30;;;;;;;;;;5034963;28;20025;-55
2021/05/02 14:06:21;;;;;;;19.57;11.47;;;;;;;;;;5034844;28;20033;-55
2021/05/02 14:08:48;;;;;;;14.83;9.90;;;;;;;;;;5034868;28;20052;-55
2021/05/02 14:11:15;;;;;;;17.70;10.97;;;;;;;;;;5034608;28;20095;-55
2021/05/02 14:13:42;;;;;;;14.17;10.10;;;;;;;;;;5034821;28;20056;-55
2021/05/02 14:16:08;;;;;;;14.10;10.50;;;;;;;;;;5034727;28;20108;-55
2021/05/02 14:18:35;;;;;;;12.87;8.97;;;;;;;;;;5034632;28;20023;-55
2021/05/02 14:21:02;;;;;;;14.43;10.67;;;;;;;;;;5034624;28;20029;-55
2021/05/02 14:23:29;;;;;;;13.07;9.03;;;;;;;;;;5034334;28;20056;-55
2021/05/02 14:25:58;;;;;;;16.67;10.57;;;;;;;;;;5034590;28;20082;-55
2021/05/02 14:28:25;;;;;;;26.90;11.90;;;;;;;;;;5034461;28;20071;-56
2021/05/02 14:30:53;;;;;;;17.93;11.60;;;;;;;;;;5034611;28;20038;-55
2021/05/02 14:33:20;;;;;;;19.80;12.30;;;;;;;;;;5034523;28;20160;-55
2021/05/02 14:35:46;;;;;;;14.67;10.27;;;;;;;;;;5034457;28;20033;-55
2021/05/02 14:38:14;;;;;;;15.87;10.60;;;;;;;;;;5034410;28;20022;-55
2021/05/02 14:40:41;;;;;;;14.70;9.97;;;;;;;;;;5034362;28;20045;-55
2021/05/02 14:43:08;;;;;;;13.47;9.50;;;;;;;;;;5034113;28;20025;-56
2021/05/02 14:45:35;;;;;;;17.33;11.30;;;;;;;;;;5034293;28;20036;-56